Terminal Aerodrome Forecast
Issued by NWS Wilmington, OH

Current Version | Previous Version | Text Only | Print | Product List | Glossary Off
Versions: 1 2 3 4 5 6 7 8 9 10 11 12 13 14 15

000
FTUS41 KILN 210523
TAFCMH
TAF
KCMH 210523Z 2106/2206 00000KT P6SM SKC
     FM210800 00000KT 5SM BR SKC
      TEMPO 2110/2112 2SM BR
     FM211400 11004KT P6SM FEW250
     FM211500 13005KT P6SM SCT040
     FM212300 12004KT P6SM FEW250=

USA.gov is the U.S. government's official web portal to all federal, state and local government web resources and services.